Time;durP1;ratioP1;P1;durP2;ratioP2;P2;SDS_P1;SDS_P2;PMS_P1;PMS_P2;Temp;Humidity;BMP_temperature;BMP_pressure;BME280_temperature;BME280_humidity;BME280_pressure;Samples;Min_cycle;Max_cycle;Signal;HPM_P1;HPM_P2
2021/09/07 00:01:14;;;;;;;;;;;26.30;99.90;;;;;;1851961;77;20647;-92
2021/09/07 00:03:44;;;;;;;;;;;26.40;99.90;;;;;;1843586;77;20211;-92
2021/09/07 00:06:14;;;;;;;;;;;26.40;99.90;;;;;;1849875;77;20549;-93
2021/09/07 00:08:45;;;;;;;;;;;26.40;99.90;;;;;;1851794;77;20423;-91
2021/09/07 00:11:16;;;;;;;;;;;26.50;99.90;;;;;;1803728;79;20191;-91
2021/09/07 00:13:45;;;;;;;;;;;26.50;99.90;;;;;;1847194;77;20179;-91
2021/09/07 00:16:15;;;;;;;;;;;26.50;99.90;;;;;;1849904;77;20184;-92
2021/09/07 00:18:45;;;;;;;;;;;26.60;99.90;;;;;;1817858;78;20187;-92
2021/09/07 00:21:15;;;;;;;;;;;26.60;99.90;;;;;;1817663;79;20159;-91
2021/09/07 00:23:44;;;;;;;;;;;26.60;99.90;;;;;;1817552;78;20181;-91
2021/09/07 00:26:19;;;;;;;;;;;26.70;99.90;;;;;;1817087;78;20216;-89
2021/09/07 00:28:48;;;;;;;;;;;26.70;99.90;;;;;;1817493;78;20298;-94
2021/09/07 00:31:30;;;;;;;;;;;26.70;99.90;;;;;;1832783;77;20230;-90
2021/09/07 00:34:05;;;;;;;;;;;26.80;99.90;;;;;;1830034;77;20190;-90
2021/09/07 00:37:13;;;;;;;;;;;;;;;;;;;;;
2021/09/07 00:39:52;;;;;;;;;;;26.80;99.90;;;;;;1842401;77;20179;-92
2021/09/07 00:42:34;;;;;;;;;;;;;;;;;;;;;
2021/09/07 00:45:01;;;;;;;;;;;26.90;99.90;;;;;;1801834;79;20203;-92
2021/09/07 00:47:31;;;;;;;;;;;26.90;99.90;;;;;;1837641;77;20231;-93
2021/09/07 00:50:11;;;;;;;;;;;27.00;99.90;;;;;;1837798;77;20172;-91
2021/09/07 00:52:42;;;;;;;;;;;27.00;99.90;;;;;;1894313;75;20196;-92
2021/09/07 00:55:12;;;;;;;;;;;27.00;99.90;;;;;;1902155;75;20162;-91
2021/09/07 00:57:44;;;;;;;;;;;27.00;99.90;;;;;;1901741;75;20244;-91
2021/09/07 01:00:15;;;;;;;;;;;27.10;99.90;;;;;;1905869;75;20193;-90
2021/09/07 01:02:45;;;;;;;;;;;27.10;99.90;;;;;;1908168;74;20240;-92
2021/09/07 01:05:15;;;;;;;;;;;27.20;99.90;;;;;;1916614;74;20130;-92
2021/09/07 01:07:45;;;;;;;;;;;27.20;99.90;;;;;;1918634;74;20282;-90
2021/09/07 01:10:15;;;;;;;;;;;27.20;99.90;;;;;;1925297;74;20211;-91
2021/09/07 01:12:45;;;;;;;;;;;27.20;99.90;;;;;;1916960;74;20181;-92
2021/09/07 01:15:15;;;;;;;;;;;27.30;99.90;;;;;;1910021;74;20250;-91
2021/09/07 01:17:44;;;;;;;;;;;27.30;99.90;;;;;;1897404;74;20219;-91
2021/09/07 01:20:14;;;;;;;;;;;27.30;99.90;;;;;;1926571;74;20152;-92
2021/09/07 01:22:44;;;;;;;;;;;27.40;99.90;;;;;;1910200;74;20246;-91
2021/09/07 01:25:14;;;;;;;;;;;27.40;99.90;;;;;;1925453;74;20204;-91
2021/09/07 01:27:43;;;;;;;;;;;27.40;99.90;;;;;;1923759;74;20197;-90
2021/09/07 01:30:14;;;;;;;;;;;27.50;99.90;;;;;;1912905;74;20273;-91
2021/09/07 01:32:44;;;;;;;;;;;27.50;99.90;;;;;;1919792;74;20200;-90
2021/09/07 01:35:14;;;;;;;;;;;27.50;99.90;;;;;;1914820;74;20345;-90
2021/09/07 01:37:43;;;;;;;;;;;27.50;99.90;;;;;;1913076;74;20188;-90
2021/09/07 01:40:13;;;;;;;;;;;27.50;99.90;;;;;;1919222;74;20249;-89
2021/09/07 01:42:43;;;;;;;;;;;27.60;99.90;;;;;;1922930;74;20193;-90
2021/09/07 01:45:13;;;;;;;;;;;27.60;99.90;;;;;;1917270;74;20228;-91
2021/09/07 01:47:43;;;;;;;;;;;27.60;99.90;;;;;;1924919;74;20130;-91
2021/09/07 01:50:13;;;;;;;;;;;27.60;99.90;;;;;;1919288;74;20205;-90
2021/09/07 01:52:59;;;;;;;;;;;27.70;99.90;;;;;;1903208;74;20179;-90
2021/09/07 01:55:18;;;;;;;;;;;27.70;99.90;;;;;;1906313;74;20197;-90
2021/09/07 01:57:50;;;;;;;;;;;27.70;99.90;;;;;;1911894;74;20232;-92
2021/09/07 02:00:19;;;;;;;;;;;27.80;99.90;;;;;;1837785;77;20159;-90
2021/09/07 02:02:49;;;;;;;;;;;27.80;99.90;;;;;;1847491;76;20193;-91
2021/09/07 02:05:19;;;;;;;;;;;27.80;99.90;;;;;;1922313;74;20196;-88
2021/09/07 02:07:49;;;;;;;;;;;27.90;99.90;;;;;;1920118;74;20213;-86
2021/09/07 02:10:20;;;;;;;;;;;27.90;99.90;;;;;;1919881;74;20536;-88
2021/09/07 02:12:50;;;;;;;;;;;28.00;99.90;;;;;;1921018;74;20145;-85
2021/09/07 02:15:20;;;;;;;;;;;28.00;99.90;;;;;;1915758;75;20193;-86
2021/09/07 02:17:49;;;;;;;;;;;28.10;99.90;;;;;;1916131;75;20367;-85
2021/09/07 02:20:19;;;;;;;;;;;28.10;99.90;;;;;;1929235;74;20227;-87
2021/09/07 02:22:48;;;;;;;;;;;28.20;99.90;;;;;;1935025;71;20173;-89
2021/09/07 02:25:18;;;;;;;;;;;28.30;99.90;;;;;;1916958;73;20246;-86
2021/09/07 02:27:48;;;;;;;;;;;28.30;99.90;;;;;;1910903;72;20209;-84
2021/09/07 02:30:18;;;;;;;;;;;28.40;99.90;;;;;;1934333;73;20241;-88
2021/09/07 02:32:48;;;;;;;;;;;28.50;99.90;;;;;;1938926;73;20235;-88
2021/09/07 02:35:17;;;;;;;;;;;28.50;99.90;;;;;;1935381;73;20204;-87
2021/09/07 02:37:47;;;;;;;;;;;28.60;99.90;;;;;;1929257;74;20181;-88
2021/09/07 02:40:17;;;;;;;;;;;28.70;99.90;;;;;;1922955;74;20205;-87
2021/09/07 02:42:47;;;;;;;;;;;28.70;99.90;;;;;;1897331;74;20224;-87
2021/09/07 02:45:17;;;;;;;;;;;28.80;99.90;;;;;;1904445;74;20226;-88
2021/09/07 02:47:46;;;;;;;;;;;28.80;99.90;;;;;;1928697;74;20656;-89
2021/09/07 02:50:17;;;;;;;;;;;28.80;99.90;;;;;;1900616;75;20496;-87
2021/09/07 02:52:47;;;;;;;;;;;28.90;99.90;;;;;;1897542;75;20160;-88
2021/09/07 02:55:16;;;;;;;;;;;28.90;99.90;;;;;;1894865;76;20175;-87
2021/09/07 02:57:46;;;;;;;;;;;29.00;99.90;;;;;;1928450;74;20212;-87
2021/09/07 03:00:18;;;;;;;;;;;29.10;99.90;;;;;;1921034;74;20181;-88
2021/09/07 03:02:49;;;;;;;;;;;29.20;99.90;;;;;;1918173;74;20241;-88
2021/09/07 03:05:19;;;;;;;;;;;29.20;99.90;;;;;;1895738;75;20126;-86
2021/09/07 03:07:56;;;;;;;;;;;29.20;99.90;;;;;;1893077;76;20174;-89
2021/09/07 03:10:33;;;;;;;;;;;29.30;99.90;;;;;;1899085;76;20239;-87
2021/09/07 03:13:03;;;;;;;;;;;29.20;99.90;;;;;;1897025;76;20173;-88
2021/09/07 03:15:33;;;;;;;;;;;29.20;99.90;;;;;;1893747;76;20181;-88
2021/09/07 03:18:03;;;;;;;;;;;29.30;99.90;;;;;;1894437;76;20221;-88
2021/09/07 03:20:33;;;;;;;;;;;29.20;99.90;;;;;;1894587;76;20177;-89
2021/09/07 03:23:02;;;;;;;;;;;29.30;99.90;;;;;;1894499;76;20166;-87
2021/09/07 03:28:41;;;;;;;;;;;29.30;99.90;;;;;;1876864;74;20721;-88
2021/09/07 03:31:11;;;;;;;;;;;29.40;99.90;;;;;;1890398;74;20183;-86
2021/09/07 03:33:41;;;;;;;;;;;29.40;99.90;;;;;;1894958;76;20227;-87
2021/09/07 03:36:11;;;;;;;;;;;29.40;99.90;;;;;;1891990;74;20173;-83
2021/09/07 03:38:41;;;;;;;;;;;29.50;99.90;;;;;;1892183;74;20170;-82
2021/09/07 03:41:12;;;;;;;;;;;29.60;99.90;;;;;;1894171;76;20173;-84
2021/09/07 03:43:42;;;;;;;;;;;29.70;99.90;;;;;;1894201;76;20170;-85
2021/09/07 03:46:11;;;;;;;;;;;29.70;99.90;;;;;;1894291;76;20166;-88
2021/09/07 03:48:41;;;;;;;;;;;29.80;99.70;;;;;;1894600;75;20228;-85
2021/09/07 03:51:11;;;;;;;;;;;29.90;99.30;;;;;;1894286;76;20263;-84
2021/09/07 03:53:40;;;;;;;;;;;30.00;99.50;;;;;;1882677;76;20214;-86
2021/09/07 03:56:10;;;;;;;;;;;30.10;99.90;;;;;;1894288;76;20204;-86
2021/09/07 03:58:40;;;;;;;;;;;30.20;99.90;;;;;;1896863;76;20441;-86
2021/09/07 04:01:10;;;;;;;;;;;30.20;99.90;;;;;;1896590;76;20178;-85
2021/09/07 04:03:40;;;;;;;;;;;30.10;99.90;;;;;;1891521;76;20289;-85
2021/09/07 04:06:10;;;;;;;;;;;30.10;99.60;;;;;;1908752;75;20201;-84
2021/09/07 04:08:40;;;;;;;;;;;30.10;97.60;;;;;;1908901;75;20472;-84
2021/09/07 04:11:09;;;;;;;;;;;30.20;98.70;;;;;;1908664;74;20189;-85
2021/09/07 04:13:40;;;;;;;;;;;30.20;99.10;;;;;;1904033;75;20211;-84
2021/09/07 04:16:10;;;;;;;;;;;30.30;97.70;;;;;;1884184;76;20179;-84
2021/09/07 04:18:40;;;;;;;;;;;30.30;97.50;;;;;;1848559;77;20201;-86
2021/09/07 04:21:12;;;;;;;;;;;30.40;97.80;;;;;;1839504;77;20179;-85
2021/09/07 04:23:40;;;;;;;;;;;30.40;97.40;;;;;;1862288;76;20493;-84
2021/09/07 04:26:10;;;;;;;;;;;30.60;97.80;;;;;;1827523;78;20500;-84
2021/09/07 04:28:39;;;;;;;;;;;30.60;97.00;;;;;;1822063;78;20201;-87
2021/09/07 04:31:09;;;;;;;;;;;30.70;97.30;;;;;;1828533;77;20217;-87
2021/09/07 04:33:39;;;;;;;;;;;30.80;98.40;;;;;;1849057;77;20359;-86
2021/09/07 04:36:08;;;;;;;;;;;30.90;98.30;;;;;;1852360;77;20203;-86
2021/09/07 04:38:38;;;;;;;;;;;30.90;98.10;;;;;;1861296;76;20439;-84
2021/09/07 04:41:08;;;;;;;;;;;30.90;98.00;;;;;;1860891;77;20183;-85
2021/09/07 04:43:38;;;;;;;;;;;30.90;97.40;;;;;;1867331;77;20204;-85
2021/09/07 04:46:07;;;;;;;;;;;30.80;96.20;;;;;;1863145;77;20208;-86
2021/09/07 04:48:37;;;;;;;;;;;30.80;94.80;;;;;;1858965;76;20192;-86
2021/09/07 04:51:07;;;;;;;;;;;30.80;94.50;;;;;;1853386;76;20445;-83
2021/09/07 04:53:36;;;;;;;;;;;30.80;94.60;;;;;;1832135;77;20577;-85
2021/09/07 04:56:06;;;;;;;;;;;30.80;95.00;;;;;;1843140;76;20174;-86
2021/09/07 04:58:36;;;;;;;;;;;30.80;95.00;;;;;;1846290;78;20208;-82
2021/09/07 05:01:06;;;;;;;;;;;30.90;96.70;;;;;;1820217;78;20477;-86
2021/09/07 05:03:36;;;;;;;;;;;31.00;97.30;;;;;;1842492;78;20175;-86
2021/09/07 05:06:06;;;;;;;;;;;31.00;95.30;;;;;;1832193;78;20202;-85
2021/09/07 05:08:35;;;;;;;;;;;31.00;93.70;;;;;;1828663;78;20194;-85
2021/09/07 05:11:06;;;;;;;;;;;31.00;94.00;;;;;;1856807;76;20187;-85
2021/09/07 05:13:36;;;;;;;;;;;30.90;93.70;;;;;;1875838;76;20105;-84
2021/09/07 05:16:06;;;;;;;;;;;30.90;94.50;;;;;;1869012;76;20160;-85
2021/09/07 05:18:37;;;;;;;;;;;30.90;95.90;;;;;;1866582;76;20239;-84
2021/09/07 05:21:07;;;;;;;;;;;30.80;95.70;;;;;;1876831;76;20187;-85
2021/09/07 05:23:39;;;;;;;;;;;30.80;95.60;;;;;;1875923;76;20195;-84
2021/09/07 05:26:09;;;;;;;;;;;30.90;95.50;;;;;;1823097;78;20277;-85
2021/09/07 05:28:39;;;;;;;;;;;30.90;95.30;;;;;;1819373;78;20185;-85
2021/09/07 05:31:21;;;;;;;;;;;31.00;95.40;;;;;;1838460;78;20585;-84
2021/09/07 05:33:51;;;;;;;;;;;31.10;95.70;;;;;;1867631;77;20271;-85
2021/09/07 05:36:20;;;;;;;;;;;31.20;94.50;;;;;;1835570;78;20241;-85
2021/09/07 05:38:50;;;;;;;;;;;31.20;94.80;;;;;;1834950;77;20310;-85
2021/09/07 05:41:20;;;;;;;;;;;31.20;94.40;;;;;;1841615;76;20236;-85
2021/09/07 05:43:50;;;;;;;;;;;31.20;95.30;;;;;;1820657;78;20167;-84
2021/09/07 05:46:56;;;;;;;;;;;31.20;94.80;;;;;;1761687;79;20217;-84
2021/09/07 05:49:23;;;;;;;;;;;31.20;93.70;;;;;;1786140;77;20336;-84
2021/09/07 05:51:52;;;;;;;;;;;31.10;93.70;;;;;;1833667;77;20274;-85
2021/09/07 05:54:23;;;;;;;;;;;31.10;93.80;;;;;;1842862;77;20283;-84
2021/09/07 05:56:57;;;;;;;;;;;31.00;94.40;;;;;;1840139;76;20256;-86
2021/09/07 05:59:24;;;;;;;;;;;31.00;94.00;;;;;;1835481;77;20376;-86
2021/09/07 06:01:58;;;;;;;;;;;30.90;94.50;;;;;;1810843;78;20553;-85
2021/09/07 06:04:25;;;;;;;;;;;30.90;94.40;;;;;;1830343;77;20528;-84
2021/09/07 06:06:55;;;;;;;;;;;30.90;94.80;;;;;;1831552;76;20284;-84
2021/09/07 06:09:25;;;;;;;;;;;30.80;94.40;;;;;;1833523;78;20286;-84
2021/09/07 06:11:54;;;;;;;;;;;30.70;94.20;;;;;;1875255;76;20189;-85
2021/09/07 06:14:24;;;;;;;;;;;30.80;94.90;;;;;;1913291;75;20193;-85
2021/09/07 06:16:56;;;;;;;;;;;30.70;94.50;;;;;;1915980;75;20197;-84
2021/09/07 06:19:25;;;;;;;;;;;30.80;95.10;;;;;;1915512;75;20456;-84
2021/09/07 06:21:57;;;;;;;;;;;30.80;94.50;;;;;;1917631;75;20205;-84
2021/09/07 06:24:27;;;;;;;;;;;30.90;94.60;;;;;;1916997;75;20200;-84
2021/09/07 06:26:57;;;;;;;;;;;31.00;95.00;;;;;;1889867;75;20255;-84
2021/09/07 06:29:26;;;;;;;;;;;31.00;95.20;;;;;;1915293;74;20185;-85
2021/09/07 06:31:56;;;;;;;;;;;31.00;95.60;;;;;;1917506;75;20162;-82
2021/09/07 06:34:26;;;;;;;;;;;31.00;94.20;;;;;;1900291;75;20514;-83
2021/09/07 06:36:57;;;;;;;;;;;30.90;95.10;;;;;;1896005;74;20181;-83
2021/09/07 06:39:26;;;;;;;;;;;30.90;94.90;;;;;;1898486;74;20170;-83
2021/09/07 06:41:56;;;;;;;;;;;30.80;95.40;;;;;;1917106;75;20169;-83
2021/09/07 06:44:25;;;;;;;;;;;30.80;95.00;;;;;;1896641;75;20232;-84
2021/09/07 06:46:55;;;;;;;;;;;30.80;95.70;;;;;;1872630;77;20180;-83
2021/09/07 06:49:25;;;;;;;;;;;30.80;95.60;;;;;;1880947;75;20526;-82
2021/09/07 06:51:56;;;;;;;;;;;30.70;95.30;;;;;;1916588;75;20315;-84
2021/09/07 06:54:26;;;;;;;;;;;30.70;95.40;;;;;;1917281;75;20193;-84
2021/09/07 06:56:55;;;;;;;;;;;30.70;95.80;;;;;;1907096;74;20256;-84
2021/09/07 06:59:25;;;;;;;;;;;30.80;95.60;;;;;;1902589;75;20198;-83
2021/09/07 07:01:55;;;;;;;;;;;30.90;95.50;;;;;;1904717;74;20654;-84
2021/09/07 07:04:25;;;;;;;;;;;31.00;94.80;;;;;;1882347;76;20205;-84
2021/09/07 07:06:55;;;;;;;;;;;31.20;94.70;;;;;;1885212;76;20186;-85
2021/09/07 07:09:25;;;;;;;;;;;31.30;94.30;;;;;;1885015;76;20209;-84
2021/09/07 07:11:54;;;;;;;;;;;31.40;93.50;;;;;;1911352;74;20287;-85
2021/09/07 07:14:24;;;;;;;;;;;31.40;92.70;;;;;;1885063;75;20161;-84
2021/09/07 07:16:54;;;;;;;;;;;31.40;92.70;;;;;;1888079;75;20220;-86
2021/09/07 07:19:23;;;;;;;;;;;31.40;93.20;;;;;;1917687;75;20193;-85
2021/09/07 07:21:53;;;;;;;;;;;31.30;93.20;;;;;;1906765;75;20190;-80
2021/09/07 07:24:22;;;;;;;;;;;31.30;93.70;;;;;;1901310;75;20205;-84
2021/09/07 07:26:53;;;;;;;;;;;31.30;93.30;;;;;;1889369;75;20201;-83
2021/09/07 07:29:23;;;;;;;;;;;31.40;93.10;;;;;;1890136;74;20185;-82
2021/09/07 07:31:53;;;;;;;;;;;31.40;93.90;;;;;;1923482;74;20540;-83
2021/09/07 07:34:23;;;;;;;;;;;31.40;93.00;;;;;;1904909;74;20373;-84
2021/09/07 07:36:57;;;;;;;;;;;31.40;93.70;;;;;;1916708;74;20182;-84
2021/09/07 07:39:24;;;;;;;;;;;31.30;93.50;;;;;;1917654;75;20268;-84
2021/09/07 07:41:54;;;;;;;;;;;31.20;93.10;;;;;;1912222;75;20180;-86
2021/09/07 07:44:24;;;;;;;;;;;31.10;93.50;;;;;;1906521;75;20179;-83
2021/09/07 07:46:54;;;;;;;;;;;31.00;93.20;;;;;;1887162;75;20194;-86
2021/09/07 07:49:23;;;;;;;;;;;31.00;93.70;;;;;;1911268;75;20201;-82
2021/09/07 07:51:55;;;;;;;;;;;31.00;93.80;;;;;;1917996;75;20281;-84
2021/09/07 07:54:24;;;;;;;;;;;31.00;93.10;;;;;;1917334;74;20202;-83
2021/09/07 07:56:54;;;;;;;;;;;31.00;93.30;;;;;;1894841;75;20372;-81
2021/09/07 07:59:23;;;;;;;;;;;31.10;93.40;;;;;;1916912;75;20583;-83
2021/09/07 08:01:54;;;;;;;;;;;31.10;94.00;;;;;;1893200;74;20215;-81
2021/09/07 08:04:24;;;;;;;;;;;31.20;93.90;;;;;;1911471;75;20215;-82
2021/09/07 08:06:54;;;;;;;;;;;31.20;93.80;;;;;;1915543;75;20189;-80
2021/09/07 08:09:25;;;;;;;;;;;31.20;94.10;;;;;;1916363;75;20487;-82
2021/09/07 08:11:54;;;;;;;;;;;31.20;93.00;;;;;;1904993;75;20244;-84
2021/09/07 08:14:26;;;;;;;;;;;31.20;93.30;;;;;;1917022;74;20184;-84
2021/09/07 08:16:56;;;;;;;;;;;31.30;93.60;;;;;;1906695;74;20461;-85
2021/09/07 08:19:30;;;;;;;;;;;31.30;92.50;;;;;;1891288;75;20209;-84
2021/09/07 08:22:01;;;;;;;;;;;31.30;93.00;;;;;;1921671;74;20231;-84
2021/09/07 08:24:31;;;;;;;;;;;31.40;92.80;;;;;;1924075;74;20428;-84
2021/09/07 08:27:04;;;;;;;;;;;31.40;92.40;;;;;;1921471;74;20606;-84
2021/09/07 08:29:35;;;;;;;;;;;31.30;92.80;;;;;;1877780;75;20201;-84
2021/09/07 08:32:06;;;;;;;;;;;31.30;92.60;;;;;;1906279;75;20515;-83
2021/09/07 08:34:36;;;;;;;;;;;31.20;92.60;;;;;;1897595;74;20471;-82
2021/09/07 08:37:06;;;;;;;;;;;31.10;92.50;;;;;;1900294;74;20189;-83
2021/09/07 08:39:36;;;;;;;;;;;31.00;92.80;;;;;;1893057;75;20178;-84
2021/09/07 08:42:06;;;;;;;;;;;31.00;92.90;;;;;;1914135;75;20197;-83
2021/09/07 08:44:37;;;;;;;;;;;31.00;93.20;;;;;;1893138;75;20476;-82
2021/09/07 08:47:06;;;;;;;;;;;31.00;93.40;;;;;;1910749;75;20608;-84
2021/09/07 08:49:36;;;;;;;;;;;31.00;94.00;;;;;;1917343;75;20200;-81
2021/09/07 08:52:06;;;;;;;;;;;30.90;93.50;;;;;;1917733;75;20216;-84
2021/09/07 08:54:36;;;;;;;;;;;31.00;93.20;;;;;;1917589;75;20177;-83
2021/09/07 08:57:06;;;;;;;;;;;30.90;93.50;;;;;;1917094;75;20178;-81
2021/09/07 08:59:36;;;;;;;;;;;30.90;93.30;;;;;;1917704;75;20201;-84
2021/09/07 09:02:07;;;;;;;;;;;30.90;93.10;;;;;;1908824;75;20186;-85
2021/09/07 09:04:37;;;;;;;;;;;30.90;93.60;;;;;;1885003;75;20214;-87
2021/09/07 09:07:06;;;;;;;;;;;31.00;94.00;;;;;;1897427;75;20209;-87
2021/09/07 09:09:38;;;;;;;;;;;31.00;92.50;;;;;;1880958;75;20229;-84
2021/09/07 09:12:08;;;;;;;;;;;31.00;92.40;;;;;;1899128;75;20178;-85
2021/09/07 09:14:39;;;;;;;;;;;31.00;92.50;;;;;;1898768;75;20477;-85
2021/09/07 09:17:10;;;;;;;;;;;31.00;92.30;;;;;;1876901;77;20217;-85
2021/09/07 09:19:40;;;;;;;;;;;31.10;92.80;;;;;;1875215;76;20174;-87
2021/09/07 09:22:12;;;;;;;;;;;31.00;92.20;;;;;;1881550;75;20217;-85
2021/09/07 09:24:48;;;;;;;;;;;31.10;92.10;;;;;;1848767;77;20204;-86
2021/09/07 09:27:19;;;;;;;;;;;31.00;92.50;;;;;;1842268;77;20183;-85
2021/09/07 09:29:51;;;;;;;;;;;31.00;92.10;;;;;;1840868;77;20220;-84
2021/09/07 09:32:29;;;;;;;;;;;31.00;92.60;;;;;;1833613;78;20211;-86
2021/09/07 09:35:09;;;;;;;;;;;31.00;93.30;;;;;;1856161;76;20424;-86
2021/09/07 09:37:38;;;;;;;;;;;31.00;93.40;;;;;;1866871;76;20179;-83
2021/09/07 09:40:07;;;;;;;;;;;31.00;92.90;;;;;;1838015;78;20435;-83
2021/09/07 09:42:50;;;;;;;;;;;31.00;93.00;;;;;;1836374;78;20213;-84
2021/09/07 09:45:31;;;;;;;;;;;31.00;92.70;;;;;;1799002;80;20221;-84
2021/09/07 09:48:15;;;;;;;;;;;31.00;92.30;;;;;;1835653;77;20418;-85
2021/09/07 09:50:33;;;;;;;;;;;31.00;92.80;;;;;;1832812;76;20252;-85
2021/09/07 09:53:03;;;;;;;;;;;30.90;92.80;;;;;;1840217;77;20233;-83
2021/09/07 09:55:33;;;;;;;;;;;30.90;92.80;;;;;;1868215;77;20518;-84
2021/09/07 09:58:06;;;;;;;;;;;30.90;93.30;;;;;;1870536;77;20160;-87
2021/09/07 10:00:41;;;;;;;;;;;30.90;93.40;;;;;;1861800;77;20216;-84
2021/09/07 10:03:15;;;;;;;;;;;30.80;93.30;;;;;;1831399;77;20172;-82
2021/09/07 10:05:47;;;;;;;;;;;30.80;93.10;;;;;;1865674;77;20216;-83
2021/09/07 10:08:18;;;;;;;;;;;30.80;93.20;;;;;;1852764;77;20182;-84
2021/09/07 10:10:49;;;;;;;;;;;30.80;93.50;;;;;;1841429;78;20205;-83
2021/09/07 10:13:20;;;;;;;;;;;30.70;93.20;;;;;;1840021;78;20186;-84
2021/09/07 10:15:59;;;;;;;;;;;30.70;93.10;;;;;;1843336;77;20214;-85
2021/09/07 10:21:07;;;;;;;;;;;30.70;93.40;;;;;;1841109;77;20168;-85
2021/09/07 10:23:33;;;;;;;;;;;30.70;93.70;;;;;;1868466;76;20211;-83
2021/09/07 10:26:10;;;;;;;;;;;30.70;93.60;;;;;;1868371;77;20243;-83
2021/09/07 10:28:42;;;;;;;;;;;30.70;93.30;;;;;;1860265;77;20200;-83
2021/09/07 10:31:13;;;;;;;;;;;30.60;93.10;;;;;;1846109;77;20180;-84
2021/09/07 10:33:44;;;;;;;;;;;30.60;93.50;;;;;;1867543;77;20485;-84
2021/09/07 10:36:15;;;;;;;;;;;30.60;93.70;;;;;;1854100;77;20214;-83
2021/09/07 10:38:46;;;;;;;;;;;30.50;93.70;;;;;;1840146;76;20242;-84
2021/09/07 10:41:17;;;;;;;;;;;30.50;93.50;;;;;;1838025;78;20432;-90
2021/09/07 10:43:48;;;;;;;;;;;30.50;93.70;;;;;;1839531;78;20190;-90
2021/09/07 10:46:19;;;;;;;;;;;30.50;93.80;;;;;;1842501;78;20182;-90
2021/09/07 10:48:49;;;;;;;;;;;30.40;93.90;;;;;;1834560;78;20207;-90
2021/09/07 10:51:24;;;;;;;;;;;30.40;94.10;;;;;;1848483;77;20208;-89
2021/09/07 10:53:58;;;;;;;;;;;30.40;94.10;;;;;;1833034;78;20118;-91
2021/09/07 10:56:40;;;;;;;;;;;30.40;94.20;;;;;;1829474;78;20497;-88
2021/09/07 10:59:11;;;;;;;;;;;30.40;94.50;;;;;;1814776;78;20221;-88
2021/09/07 11:01:41;;;;;;;;;;;30.30;94.50;;;;;;1855456;77;20194;-89
2021/09/07 11:04:18;;;;;;;;;;;30.30;94.40;;;;;;1852943;77;20530;-91
2021/09/07 11:06:48;;;;;;;;;;;30.30;94.50;;;;;;1856930;76;20263;-90
2021/09/07 11:10:41;;;;;;;;;;;30.30;94.60;;;;;;1854133;76;20230;-88
2021/09/07 11:12:17;;;;;;;;;;;30.30;94.70;;;;;;1812771;77;20299;-93
2021/09/07 11:14:57;;;;;;;;;;;30.20;94.60;;;;;;1832848;76;20193;-88
2021/09/07 11:17:36;;;;;;;;;;;30.20;94.70;;;;;;1857251;76;20563;-92
2021/09/07 11:20:11;;;;;;;;;;;30.20;94.70;;;;;;1832222;74;20373;-92
2021/09/07 11:22:54;;;;;;;;;;;30.20;95.20;;;;;;1869296;76;20122;-92
2021/09/07 11:25:23;;;;;;;;;;;30.10;94.90;;;;;;1870237;76;20148;-93
2021/09/07 11:28:10;;;;;;;;;;;30.10;95.00;;;;;;1863463;76;20179;-92
2021/09/07 11:31:03;;;;;;;;;;;30.10;95.10;;;;;;1848601;75;20166;-92
2021/09/07 11:33:53;;;;;;;;;;;30.10;95.00;;;;;;1822249;78;20161;-92
2021/09/07 11:36:33;;;;;;;;;;;30.10;95.10;;;;;;1900405;74;20157;-91
2021/09/07 11:39:03;;;;;;;;;;;30.10;95.20;;;;;;1896004;74;20160;-92
2021/09/07 11:41:29;;;;;;;;;;;30.00;95.20;;;;;;1910818;74;20153;-92
2021/09/07 11:44:02;;;;;;;;;;;30.00;95.20;;;;;;1929375;71;20122;-92
2021/09/07 11:46:42;;;;;;;;;;;30.00;95.30;;;;;;1919976;74;20276;-93
2021/09/07 11:49:19;;;;;;;;;;;30.00;95.40;;;;;;1905233;74;20228;-94
2021/09/07 11:52:47;;;;;;;;;;;30.00;95.40;;;;;;1897472;76;20433;-94
2021/09/07 11:54:51;;;;;;;;;;;30.00;95.40;;;;;;1896826;72;20126;-92
2021/09/07 11:57:23;;;;;;;;;;;29.90;95.50;;;;;;1878795;74;20211;-95
2021/09/07 12:00:07;;;;;;;;;;;30.00;95.60;;;;;;1881536;71;20193;-93
2021/09/07 12:02:50;;;;;;;;;;;30.00;95.60;;;;;;1847199;77;20178;-93
2021/09/07 12:05:20;;;;;;;;;;;29.90;95.60;;;;;;1849843;75;20279;-92
2021/09/07 12:07:53;;;;;;;;;;;29.90;95.60;;;;;;1852661;77;20146;-92
2021/09/07 12:10:23;;;;;;;;;;;29.90;95.60;;;;;;1792344;79;20247;-92
2021/09/07 12:12:53;;;;;;;;;;;29.90;95.70;;;;;;1809638;79;20143;-92
2021/09/07 12:15:22;;;;;;;;;;;29.90;95.70;;;;;;1790894;80;20348;-93
2021/09/07 12:17:52;;;;;;;;;;;29.90;95.80;;;;;;1809468;79;20195;-94
2021/09/07 12:20:23;;;;;;;;;;;29.80;95.80;;;;;;1796115;79;20184;-93
2021/09/07 12:22:52;;;;;;;;;;;29.80;96.20;;;;;;1798816;79;20510;-94
2021/09/07 12:25:22;;;;;;;;;;;29.80;95.90;;;;;;1791997;80;20545;-92
2021/09/07 12:27:53;;;;;;;;;;;29.80;95.90;;;;;;1813562;79;20188;-93
2021/09/07 12:30:25;;;;;;;;;;;29.80;96.00;;;;;;1813554;79;20297;-93
2021/09/07 12:32:56;;;;;;;;;;;29.80;96.00;;;;;;1821021;79;20180;-93
2021/09/07 12:35:27;;;;;;;;;;;29.70;96.10;;;;;;1816928;79;20125;-93
2021/09/07 12:37:57;;;;;;;;;;;29.70;96.10;;;;;;1843539;75;20472;-91
2021/09/07 12:40:28;;;;;;;;;;;29.70;96.20;;;;;;1835880;77;20217;-94
2021/09/07 12:43:01;;;;;;;;;;;29.70;96.20;;;;;;1842152;75;20220;-91
2021/09/07 12:45:33;;;;;;;;;;;29.70;96.30;;;;;;1852599;77;20205;-92
2021/09/07 12:48:03;;;;;;;;;;;29.70;96.40;;;;;;1847487;77;20221;-92
2021/09/07 12:50:36;;;;;;;;;;;29.70;96.40;;;;;;1825510;77;20239;-91
2021/09/07 12:53:08;;;;;;;;;;;29.70;96.40;;;;;;1822897;78;20194;-92
2021/09/07 12:55:39;;;;;;;;;;;29.70;96.50;;;;;;1815618;78;20454;-93
2021/09/07 12:58:09;;;;;;;;;;;29.70;96.60;;;;;;1817206;78;20397;-92
2021/09/07 13:00:41;;;;;;;;;;;29.60;96.60;;;;;;1812961;78;20236;-90
2021/09/07 13:03:12;;;;;;;;;;;29.70;96.60;;;;;;1835115;78;20265;-93
2021/09/07 13:05:45;;;;;;;;;;;29.60;96.60;;;;;;1828068;78;20318;-92
2021/09/07 13:08:15;;;;;;;;;;;29.60;96.70;;;;;;1815650;78;20222;-91
2021/09/07 13:10:44;;;;;;;;;;;29.60;96.70;;;;;;1826395;78;20478;-92
2021/09/07 13:13:14;;;;;;;;;;;29.60;96.70;;;;;;1828064;78;20599;-90
2021/09/07 13:18:51;;;;;;;;;;;29.60;96.80;;;;;;1840356;77;20259;-89
2021/09/07 13:21:21;;;;;;;;;;;29.50;96.80;;;;;;1842477;77;20437;-91
2021/09/07 13:23:50;;;;;;;;;;;29.50;96.80;;;;;;1840200;77;20292;-91
2021/09/07 13:26:29;;;;;;;;;;;29.50;96.80;;;;;;1833619;77;20528;-92
2021/09/07 13:28:59;;;;;;;;;;;29.50;96.90;;;;;;1831552;77;20367;-92
2021/09/07 13:31:29;;;;;;;;;;;29.50;96.90;;;;;;1829298;77;20149;-90
2021/09/07 13:34:16;;;;;;;;;;;29.50;96.90;;;;;;1833751;77;20494;-92
2021/09/07 13:36:46;;;;;;;;;;;29.40;96.90;;;;;;1841620;77;20260;-93
2021/09/07 13:39:16;;;;;;;;;;;29.40;96.90;;;;;;1835113;77;20345;-91
2021/09/07 13:41:46;;;;;;;;;;;29.40;96.90;;;;;;1842744;77;20244;-92
2021/09/07 13:44:15;;;;;;;;;;;29.40;96.90;;;;;;1831697;77;20220;-92
2021/09/07 13:46:46;;;;;;;;;;;29.40;97.00;;;;;;1838301;77;20226;-93
2021/09/07 13:49:16;;;;;;;;;;;29.40;97.00;;;;;;1841550;77;20207;-91
2021/09/07 13:51:46;;;;;;;;;;;29.40;97.00;;;;;;1841471;78;20215;-91
2021/09/07 13:54:15;;;;;;;;;;;29.40;97.10;;;;;;1824709;78;20207;-92
2021/09/07 13:56:48;;;;;;;;;;;29.40;97.20;;;;;;1815890;78;20417;-91
2021/09/07 13:59:17;;;;;;;;;;;29.30;97.20;;;;;;1827552;78;20234;-91
2021/09/07 14:01:58;;;;;;;;;;;29.30;97.40;;;;;;1846341;77;20186;-91
2021/09/07 14:04:28;;;;;;;;;;;29.30;97.40;;;;;;1852001;77;20194;-91
2021/09/07 14:06:58;;;;;;;;;;;29.30;97.40;;;;;;1839924;77;20127;-92
2021/09/07 14:09:28;;;;;;;;;;;29.30;97.50;;;;;;1851267;77;20221;-91
2021/09/07 14:11:58;;;;;;;;;;;29.30;97.50;;;;;;1851745;77;20238;-92
2021/09/07 14:14:27;;;;;;;;;;;29.20;97.60;;;;;;1854418;77;20237;-91
2021/09/07 14:16:57;;;;;;;;;;;29.20;97.60;;;;;;1848732;76;20178;-92
2021/09/07 14:22:15;;;;;;;;;;;29.20;98.10;;;;;;1731088;82;20478;-92
2021/09/07 14:24:45;;;;;;;;;;;29.20;98.20;;;;;;1730607;83;20243;-93
2021/09/07 14:27:14;;;;;;;;;;;29.20;98.10;;;;;;1730463;83;20598;-93
2021/09/07 14:29:45;;;;;;;;;;;29.10;98.10;;;;;;1734067;82;20236;-91
2021/09/07 14:32:14;;;;;;;;;;;29.10;98.30;;;;;;1730749;83;20271;-91
2021/09/07 14:34:47;;;;;;;;;;;29.10;98.10;;;;;;1729870;83;20251;-93
2021/09/07 14:37:15;;;;;;;;;;;29.10;98.20;;;;;;1730265;83;20226;-91
2021/09/07 14:39:46;;;;;;;;;;;29.00;98.50;;;;;;1730481;83;20214;-93
2021/09/07 14:43:00;;;;;;;;;;;29.00;98.40;;;;;;1693469;83;20454;-92
2021/09/07 14:45:15;;;;;;;;;;;29.00;98.40;;;;;;1719881;83;20252;-92
2021/09/07 14:47:44;;;;;;;;;;;29.00;98.40;;;;;;1724802;83;20231;-94
2021/09/07 14:50:14;;;;;;;;;;;29.00;98.40;;;;;;1730328;83;20318;-93
2021/09/07 14:52:46;;;;;;;;;;;28.90;98.30;;;;;;1725660;83;20259;-92
2021/09/07 14:55:17;;;;;;;;;;;28.90;98.30;;;;;;1727135;83;20275;-93